Antoing, Belgium
Current Conditions -  °F | °C
As of 5:00 PM on Thursday 27 Nov 2014 (Local Time) from LFQQ Reporting Station
Overcast Overcast  
Wind Chill: 50°   Ceiling: 800
Heat Index: 50°   Visibility: 6mi
Dew Point: 50°   Wind: 6mph
Humidity: 100%   Direction: 130°SE
Pressure: 29.65"   Gusts: NA
Location:  50.57°N, 3.45°E
Report Text: LFQQ 271600Z 13005KT 9999 OVC008 10/10 Q1004 NOSIG
Loading
Personal Weather Stations






























Interactive Weather Map New forecast layout! Learn more

10-Day Weather Forecast

Advertisements
Track Severe Weather on mobile